createdAt,value
2019-06-15T00:02:26.922Z,21.10
2019-06-15T00:04:55.794Z,21.10
2019-06-15T00:07:24.608Z,21.00
2019-06-15T00:09:53.495Z,21.00
2019-06-15T00:12:22.331Z,21.00
2019-06-15T00:14:51.200Z,21.00
2019-06-15T00:17:20.088Z,21.00
2019-06-15T00:19:48.908Z,21.00
2019-06-15T00:22:17.863Z,20.90
2019-06-15T00:24:46.720Z,20.90
2019-06-15T00:27:15.667Z,20.90
2019-06-15T00:29:44.470Z,20.90
2019-06-15T00:32:13.340Z,20.90
2019-06-15T00:34:42.125Z,20.90
2019-06-15T00:37:10.934Z,20.90
2019-06-15T00:39:39.742Z,20.80
2019-06-15T00:42:08.553Z,20.80
2019-06-15T00:44:37.490Z,20.80
2019-06-15T00:47:06.429Z,20.80
2019-06-15T00:49:35.206Z,20.80
2019-06-15T00:52:04.241Z,20.80
2019-06-15T00:54:33.056Z,20.80
2019-06-15T00:57:01.864Z,20.80
2019-06-15T00:59:30.728Z,20.80
2019-06-15T01:01:59.577Z,20.80
2019-06-15T01:04:28.537Z,20.80
2019-06-15T01:06:57.361Z,20.90
2019-06-15T01:09:26.258Z,20.90
2019-06-15T01:11:55.069Z,20.90
2019-06-15T01:14:23.917Z,20.90
2019-06-15T01:16:52.770Z,20.90
2019-06-15T01:19:21.776Z,20.90
2019-06-15T01:21:50.772Z,20.90
2019-06-15T01:24:19.568Z,20.90
2019-06-15T01:26:48.447Z,20.80
2019-06-15T01:29:17.483Z,20.80
2019-06-15T01:31:46.323Z,20.80
2019-06-15T01:34:15.215Z,20.80
2019-06-15T01:36:44.014Z,20.80
2019-06-15T01:39:12.844Z,20.70
2019-06-15T01:41:41.738Z,20.70
2019-06-15T01:44:10.621Z,20.70
2019-06-15T01:46:39.644Z,20.70
2019-06-15T01:49:08.486Z,20.70
2019-06-15T01:51:37.361Z,20.70
2019-06-15T01:54:06.348Z,20.70
2019-06-15T01:56:35.166Z,20.70
2019-06-15T01:59:04.132Z,20.70
2019-06-15T02:01:33.066Z,20.70
2019-06-15T02:04:01.940Z,20.70
2019-06-15T02:06:30.900Z,20.70
2019-06-15T02:08:59.720Z,20.70
2019-06-15T02:11:28.613Z,20.60
2019-06-15T02:13:57.518Z,20.60
2019-06-15T02:16:26.366Z,20.60
2019-06-15T02:18:55.549Z,20.60
2019-06-15T02:21:24.393Z,20.60
2019-06-15T02:23:53.331Z,20.60
2019-06-15T02:26:22.392Z,20.50
2019-06-15T02:28:51.220Z,20.50
2019-06-15T02:31:20.046Z,20.50
2019-06-15T02:33:48.932Z,20.60
2019-06-15T02:36:17.916Z,20.60
2019-06-15T02:38:46.873Z,20.60
2019-06-15T02:41:15.761Z,20.60
2019-06-15T02:43:44.743Z,20.70
2019-06-15T02:46:13.719Z,20.70
2019-06-15T02:48:42.593Z,20.60
2019-06-15T02:51:11.501Z,20.60
2019-06-15T02:53:40.293Z,20.70
2019-06-15T02:56:09.268Z,20.60
2019-06-15T02:58:38.243Z,20.60
2019-06-15T03:01:09.070Z,20.60
2019-06-15T03:03:37.970Z,20.50
2019-06-15T03:06:07.129Z,20.50
2019-06-15T03:08:36.300Z,20.50
2019-06-15T03:11:05.978Z,20.40
2019-06-15T03:13:35.845Z,20.40
2019-06-15T03:16:05.770Z,20.40
2019-06-15T03:18:34.590Z,20.40
2019-06-15T03:21:03.620Z,20.40
2019-06-15T03:23:32.453Z,20.50
2019-06-15T03:26:05.457Z,20.50
2019-06-15T03:28:32.095Z,20.50
2019-06-15T03:31:00.927Z,20.50
2019-06-15T03:33:29.748Z,20.50
2019-06-15T03:35:58.670Z,20.50
2019-06-15T03:38:27.587Z,20.50
2019-06-15T03:40:56.435Z,20.50
2019-06-15T03:43:25.736Z,20.50
2019-06-15T03:45:54.549Z,20.50
2019-06-15T03:48:23.357Z,20.50
2019-06-15T03:50:52.212Z,20.50
2019-06-15T03:53:21.116Z,20.50
2019-06-15T03:55:49.965Z,20.50
2019-06-15T03:58:18.813Z,20.50
2019-06-15T04:01:01.279Z,20.50
2019-06-15T04:03:30.129Z,20.50
2019-06-15T04:05:59.026Z,20.30
2019-06-15T04:08:27.851Z,20.30
2019-06-15T04:10:56.811Z,20.30
2019-06-15T04:13:25.622Z,20.40
2019-06-15T04:15:54.532Z,20.40
2019-06-15T04:18:23.451Z,20.40
2019-06-15T04:20:52.358Z,20.40
2019-06-15T04:23:21.303Z,20.30
2019-06-15T04:25:50.263Z,20.40
2019-06-15T04:28:19.248Z,20.40
2019-06-15T04:30:48.151Z,20.30
2019-06-15T04:33:17.156Z,20.30
2019-06-15T04:35:46.127Z,20.30
2019-06-15T04:38:15.123Z,20.30
2019-06-15T04:40:43.978Z,20.20
2019-06-15T04:43:12.902Z,20.20
2019-06-15T04:45:41.750Z,20.20
2019-06-15T04:48:10.569Z,20.20
2019-06-15T04:50:39.509Z,20.10
2019-06-15T04:53:08.381Z,20.10
2019-06-15T04:55:37.350Z,20.10
2019-06-15T04:58:06.273Z,20.10
2019-06-15T05:00:35.145Z,20.10
2019-06-15T05:03:04.212Z,20.10
2019-06-15T05:05:33.270Z,20.10
2019-06-15T05:08:02.210Z,20.10
2019-06-15T05:10:31.027Z,20.00
2019-06-15T05:12:59.857Z,20.00
2019-06-15T05:15:28.744Z,20.00
2019-06-15T05:17:57.701Z,20.00
2019-06-15T05:20:26.576Z,20.00
2019-06-15T05:22:55.565Z,20.10
2019-06-15T05:25:24.637Z,20.00
2019-06-15T05:27:53.683Z,20.10
2019-06-15T05:30:22.769Z,20.10
2019-06-15T05:32:51.578Z,20.10
2019-06-15T05:35:23.502Z,20.10
2019-06-15T05:37:51.206Z,20.10
2019-06-15T05:40:20.237Z,20.10
2019-06-15T05:42:49.137Z,20.10
2019-06-15T05:45:18.333Z,20.20
2019-06-15T05:47:47.154Z,20.10
2019-06-15T05:50:17.082Z,20.10
2019-06-15T05:52:45.909Z,20.00
2019-06-15T05:55:14.886Z,20.10
2019-06-15T05:57:43.761Z,20.20
2019-06-15T06:00:14.517Z,20.20
2019-06-15T06:02:43.359Z,20.30
2019-06-15T06:05:12.348Z,20.30
2019-06-15T06:07:41.360Z,20.30
2019-06-15T06:10:11.153Z,20.30
2019-06-15T06:12:40.202Z,20.30
2019-06-15T06:15:09.566Z,20.40
2019-06-15T06:17:38.453Z,20.40
2019-06-15T06:20:09.305Z,20.40
2019-06-15T06:22:38.111Z,20.40
2019-06-15T06:25:07.177Z,20.40
2019-06-15T06:27:37.796Z,20.40
2019-06-15T06:30:08.182Z,20.40
2019-06-15T06:32:37.111Z,20.40
2019-06-15T06:35:06.463Z,20.40
2019-06-15T06:37:35.299Z,20.40
2019-06-15T06:40:05.422Z,20.40
2019-06-15T06:42:34.385Z,20.40
2019-06-15T06:45:03.413Z,20.40
2019-06-15T06:47:32.270Z,20.40
2019-06-15T06:50:01.164Z,20.40
2019-06-15T06:52:29.998Z,20.40
2019-06-15T06:54:58.860Z,20.30
2019-06-15T06:57:27.772Z,20.30
2019-06-15T06:59:56.624Z,20.30
2019-06-15T07:02:25.417Z,20.20
2019-06-15T07:04:54.318Z,20.20
2019-06-15T07:07:23.166Z,20.10
2019-06-15T07:09:52.003Z,20.00
2019-06-15T07:12:20.797Z,20.00
2019-06-15T07:14:49.605Z,19.90
2019-06-15T07:17:18.433Z,19.80
2019-06-15T07:19:47.917Z,19.80
2019-06-15T07:22:16.865Z,19.80
2019-06-15T07:24:45.752Z,19.80
2019-06-15T07:27:15.462Z,19.80
2019-06-15T07:29:44.379Z,19.80
2019-06-15T07:32:13.382Z,19.80
2019-06-15T07:34:42.202Z,19.90
2019-06-15T07:37:11.006Z,19.90
2019-06-15T07:39:39.873Z,19.90
2019-06-15T07:42:08.818Z,19.80
2019-06-15T07:44:37.718Z,19.80
2019-06-15T07:47:06.673Z,19.90
2019-06-15T07:49:35.636Z,20.00
2019-06-15T07:52:04.532Z,20.00
2019-06-15T07:54:36.203Z,20.10
2019-06-15T07:57:04.172Z,20.10
2019-06-15T07:59:33.183Z,20.10
2019-06-15T08:02:02.142Z,20.20
2019-06-15T08:04:31.017Z,20.20
2019-06-15T08:06:59.864Z,20.30
2019-06-15T08:09:28.664Z,20.30
2019-06-15T08:11:57.613Z,20.40
2019-06-15T08:14:26.450Z,20.40
2019-06-15T08:16:55.284Z,20.40
2019-06-15T08:19:24.284Z,20.40
2019-06-15T08:21:53.170Z,20.40
2019-06-15T08:24:22.027Z,20.40
2019-06-15T08:26:50.846Z,20.50
2019-06-15T08:29:19.797Z,20.50
2019-06-15T08:31:48.771Z,20.50
2019-06-15T08:34:17.663Z,20.60
2019-06-15T08:36:46.502Z,20.60
2019-06-15T08:39:15.341Z,20.60
2019-06-15T08:41:44.272Z,20.70
2019-06-15T08:44:13.139Z,20.60
2019-06-15T08:46:42.208Z,20.70
2019-06-15T08:49:11.047Z,20.80
2019-06-15T08:51:40.045Z,20.90
2019-06-15T08:54:08.990Z,21.10
2019-06-15T08:56:38.303Z,21.20
2019-06-15T08:59:07.197Z,21.30
2019-06-15T09:01:36.080Z,21.40
2019-06-15T09:04:05.081Z,21.50
2019-06-15T09:06:33.969Z,21.60
2019-06-15T09:09:03.066Z,21.60
2019-06-15T09:11:31.923Z,21.80
2019-06-15T09:14:00.885Z,21.80
2019-06-15T09:16:29.665Z,21.90
2019-06-15T09:18:58.461Z,21.90
2019-06-15T09:21:27.294Z,22.00
2019-06-15T09:23:56.111Z,22.00
2019-06-15T09:26:24.910Z,22.10
2019-06-15T09:28:53.740Z,22.10
2019-06-15T09:31:22.650Z,22.10
2019-06-15T09:33:51.501Z,22.10
2019-06-15T09:36:20.427Z,22.10
2019-06-15T09:38:49.362Z,22.10
2019-06-15T09:41:18.185Z,22.20
2019-06-15T09:43:46.989Z,22.20
2019-06-15T09:46:15.991Z,22.30
2019-06-15T09:48:44.867Z,22.30
2019-06-15T09:51:13.777Z,22.40
2019-06-15T09:53:42.705Z,22.50
2019-06-15T09:56:11.549Z,22.60
2019-06-15T09:58:40.443Z,22.70
2019-06-15T10:01:09.342Z,22.70
2019-06-15T10:03:38.202Z,22.80
2019-06-15T10:06:11.603Z,22.90
2019-06-15T10:08:37.823Z,23.00
2019-06-15T10:11:06.698Z,23.00
2019-06-15T10:13:35.524Z,23.10
2019-06-15T10:16:04.401Z,23.20
2019-06-15T10:18:33.367Z,23.30
2019-06-15T10:21:02.221Z,23.40
2019-06-15T10:23:31.194Z,23.50
2019-06-15T10:26:00.012Z,23.50
2019-06-15T10:28:28.824Z,23.50
2019-06-15T10:31:00.612Z,23.50
2019-06-15T10:33:28.417Z,23.60
2019-06-15T10:35:57.334Z,23.70
2019-06-15T10:38:26.197Z,23.70
2019-06-15T10:40:55.114Z,23.70
2019-06-15T10:43:23.984Z,23.70
2019-06-15T10:45:52.879Z,23.70
2019-06-15T10:48:21.662Z,23.70
2019-06-15T10:50:50.501Z,23.70
2019-06-15T10:53:19.291Z,23.80
2019-06-15T10:55:48.253Z,23.80
2019-06-15T10:58:17.143Z,23.80
2019-06-15T11:00:48.901Z,23.70
2019-06-15T11:03:17.525Z,23.70
2019-06-15T11:05:46.462Z,23.60
2019-06-15T11:08:15.301Z,23.60
2019-06-15T11:11:10.208Z,23.50
2019-06-15T11:13:39.052Z,23.50
2019-06-15T11:16:07.899Z,23.50
2019-06-15T11:18:37.450Z,23.40
2019-06-15T11:21:06.265Z,23.40
2019-06-15T11:23:35.353Z,23.50
2019-06-15T11:26:04.497Z,23.50
2019-06-15T11:28:33.482Z,23.50
2019-06-15T11:31:02.388Z,23.60
2019-06-15T11:33:31.350Z,23.70
2019-06-15T11:36:00.420Z,23.80
2019-06-15T11:38:29.396Z,23.80
2019-06-15T11:40:58.409Z,23.80
2019-06-15T11:43:27.332Z,23.90
2019-06-15T11:45:56.263Z,23.90
2019-06-15T11:48:25.242Z,23.90
2019-06-15T11:50:54.136Z,23.90
2019-06-15T11:53:23.048Z,23.90
2019-06-15T11:55:51.896Z,23.90
2019-06-15T11:58:20.763Z,23.90
2019-06-15T12:00:49.735Z,24.00
2019-06-15T12:03:18.624Z,24.00
2019-06-15T12:05:47.601Z,24.00
2019-06-15T12:08:16.499Z,24.00
2019-06-15T12:10:45.506Z,24.00
2019-06-15T12:13:14.386Z,24.00
2019-06-15T12:15:43.264Z,24.00
2019-06-15T12:18:12.183Z,24.00
2019-06-15T12:20:40.984Z,23.90
2019-06-15T12:23:09.981Z,23.90
2019-06-15T12:25:41.052Z,23.90
2019-06-15T12:28:10.044Z,24.00
2019-06-15T12:30:46.820Z,24.00
2019-06-15T12:33:10.343Z,24.00
2019-06-15T12:35:39.123Z,24.00
2019-06-15T12:38:07.980Z,24.00
2019-06-15T12:40:36.946Z,24.10
2019-06-15T12:43:05.872Z,24.10
2019-06-15T12:45:34.904Z,24.10
2019-06-15T12:48:03.814Z,24.10
2019-06-15T12:50:32.769Z,24.00
2019-06-15T12:53:01.655Z,24.00
2019-06-15T12:55:31.020Z,23.80
2019-06-15T12:58:00.034Z,23.90
2019-06-15T13:00:35.115Z,23.90
2019-06-15T13:03:04.281Z,24.00
2019-06-15T13:05:33.331Z,24.10
2019-06-15T13:08:02.236Z,24.20
2019-06-15T13:10:31.051Z,24.30
2019-06-15T13:12:59.978Z,24.30
2019-06-15T13:15:29.046Z,24.40
2019-06-15T13:17:57.886Z,24.50
2019-06-15T13:20:29.363Z,24.50
2019-06-15T13:22:58.377Z,24.60
2019-06-15T13:25:27.252Z,24.70
2019-06-15T13:27:56.187Z,24.70
2019-06-15T13:30:26.389Z,24.80
2019-06-15T13:32:55.373Z,24.80
2019-06-15T13:35:24.270Z,24.90
2019-06-15T13:37:53.062Z,25.00
2019-06-15T13:40:21.910Z,25.10
2019-06-15T13:42:50.714Z,25.10
2019-06-15T13:45:21.202Z,25.10
2019-06-15T13:47:50.056Z,25.20
2019-06-15T13:50:19.069Z,25.20
2019-06-15T13:52:48.090Z,25.20
2019-06-15T13:55:17.102Z,25.30
2019-06-15T13:57:46.018Z,25.30
2019-06-15T14:00:15.003Z,25.30
2019-06-15T14:02:43.886Z,25.30
2019-06-15T14:05:13.383Z,25.30
2019-06-15T14:07:42.282Z,25.30
2019-06-15T14:10:11.684Z,25.30
2019-06-15T14:12:40.792Z,25.30
2019-06-15T14:15:09.845Z,25.30
2019-06-15T14:17:39.943Z,25.30
2019-06-15T14:20:09.616Z,25.30
2019-06-15T14:22:38.498Z,25.30
2019-06-15T14:25:08.286Z,25.30
2019-06-15T14:27:37.248Z,25.10
2019-06-15T14:30:06.425Z,25.10
2019-06-15T14:32:35.414Z,25.20
2019-06-15T14:35:04.900Z,25.30
2019-06-15T14:37:33.928Z,25.30
2019-06-15T14:40:02.842Z,25.40
2019-06-15T14:42:31.911Z,25.50
2019-06-15T14:45:00.725Z,25.60
2019-06-15T14:47:29.657Z,25.60
2019-06-15T14:49:58.623Z,25.70
2019-06-15T14:52:27.545Z,25.70
2019-06-15T14:54:56.778Z,25.70
2019-06-15T14:57:27.010Z,25.80
2019-06-15T15:00:05.968Z,25.70
2019-06-15T15:02:33.164Z,25.70
2019-06-15T15:05:02.023Z,25.60
2019-06-15T15:07:30.831Z,25.60
2019-06-15T15:09:59.729Z,25.60
2019-06-15T15:12:28.635Z,25.60
2019-06-15T15:14:57.547Z,25.70
2019-06-15T15:17:27.055Z,25.70
2019-06-15T15:19:57.324Z,25.70
2019-06-15T15:22:26.962Z,25.70
2019-06-15T15:24:56.308Z,25.80
2019-06-15T15:27:27.148Z,25.80
2019-06-15T15:29:57.084Z,25.90
2019-06-15T15:32:31.109Z,25.90
2019-06-15T15:34:56.913Z,25.90
2019-06-15T15:37:26.736Z,25.90
2019-06-15T15:39:56.542Z,26.00
2019-06-15T15:42:26.946Z,26.00
2019-06-15T15:44:56.626Z,26.00
2019-06-15T15:47:27.422Z,26.00
2019-06-15T15:49:57.583Z,26.00
2019-06-15T15:52:27.223Z,25.90
2019-06-15T15:54:56.690Z,25.90
2019-06-15T15:57:26.626Z,25.80
2019-06-15T15:59:56.469Z,25.80
2019-06-15T16:02:35.543Z,25.70
2019-06-15T16:04:57.540Z,25.60
2019-06-15T16:07:27.753Z,25.60
2019-06-15T16:09:57.024Z,25.60
2019-06-15T16:12:25.826Z,25.50
2019-06-15T16:14:56.499Z,25.50
2019-06-15T16:17:26.773Z,25.50
2019-06-15T16:19:56.387Z,25.40
2019-06-15T16:22:26.324Z,25.50
2019-06-15T16:24:56.476Z,25.50
2019-06-15T16:27:26.590Z,25.50
2019-06-15T16:29:57.005Z,25.50
2019-06-15T16:32:26.387Z,25.50
2019-06-15T16:34:55.477Z,25.60
2019-06-15T16:37:26.028Z,25.70
2019-06-15T16:39:54.866Z,25.70
2019-06-15T16:42:23.687Z,25.80
2019-06-15T16:44:52.507Z,25.80
2019-06-15T16:47:21.370Z,25.80
2019-06-15T16:49:50.231Z,25.80
2019-06-15T16:52:19.080Z,25.70
2019-06-15T16:54:48.031Z,25.70
2019-06-15T16:57:16.936Z,25.70
2019-06-15T16:59:46.800Z,25.90
2019-06-15T17:02:17.221Z,26.00
2019-06-15T17:04:46.811Z,26.30
2019-06-15T17:07:17.416Z,26.40
2019-06-15T17:09:46.652Z,26.50
2019-06-15T17:12:16.936Z,26.40
2019-06-15T17:14:47.659Z,26.40
2019-06-15T17:17:17.312Z,26.30
2019-06-15T17:19:46.861Z,26.20
2019-06-15T17:22:21.071Z,26.10
2019-06-15T17:24:46.334Z,26.00
2019-06-15T17:27:17.044Z,25.70
2019-06-15T17:29:46.886Z,25.60
2019-06-15T17:32:17.068Z,25.60
2019-06-15T17:34:46.894Z,25.50
2019-06-15T17:37:17.273Z,25.40
2019-06-15T17:39:46.779Z,25.30
2019-06-15T17:42:16.442Z,25.30
2019-06-15T17:44:46.231Z,25.20
2019-06-15T17:47:16.911Z,25.10
2019-06-15T17:49:46.924Z,25.00
2019-06-15T17:52:16.828Z,24.90
2019-06-15T17:54:46.701Z,24.80
2019-06-15T17:57:15.613Z,24.70
2019-06-15T17:59:46.895Z,24.60
2019-06-15T18:02:17.094Z,24.50
2019-06-15T18:04:47.558Z,24.50
2019-06-15T18:07:16.961Z,24.40
2019-06-15T18:09:46.596Z,24.30
2019-06-15T18:12:16.245Z,24.20
2019-06-15T18:14:46.417Z,24.10
2019-06-15T18:17:17.156Z,24.10
2019-06-15T18:19:47.033Z,24.10
2019-06-15T18:22:17.039Z,24.00
2019-06-15T18:24:46.688Z,24.00
2019-06-15T18:27:16.915Z,23.90
2019-06-15T18:29:46.517Z,23.90
2019-06-15T18:32:17.140Z,23.90
2019-06-15T18:34:46.566Z,23.90
2019-06-15T18:37:17.285Z,23.90
2019-06-15T18:39:46.873Z,23.90
2019-06-15T18:42:16.447Z,23.90
2019-06-15T18:44:47.815Z,23.90
2019-06-15T18:47:16.618Z,23.90
2019-06-15T18:49:47.319Z,23.90
2019-06-15T18:52:17.075Z,23.80
2019-06-15T18:54:46.747Z,23.80
2019-06-15T18:57:17.612Z,23.90
2019-06-15T18:59:47.372Z,23.80
2019-06-15T19:02:16.587Z,23.80
2019-06-15T19:04:45.493Z,23.70
2019-06-15T19:07:16.217Z,23.80
2019-06-15T19:09:46.555Z,23.80
2019-06-15T19:12:18.577Z,23.80
2019-06-15T19:14:47.039Z,23.80
2019-06-15T19:17:16.580Z,23.80
2019-06-15T19:19:46.788Z,23.80
2019-06-15T19:22:17.171Z,23.80
2019-06-15T19:24:50.337Z,23.80
2019-06-15T19:27:16.855Z,23.80
2019-06-15T19:29:46.580Z,23.70
2019-06-15T19:32:17.243Z,23.70
2019-06-15T19:34:48.767Z,23.70
2019-06-15T19:37:16.972Z,23.60
2019-06-15T19:39:46.386Z,23.60
2019-06-15T19:42:15.568Z,23.60
2019-06-15T19:44:44.450Z,23.50
2019-06-15T19:47:16.185Z,23.50
2019-06-15T19:49:46.564Z,23.40
2019-06-15T19:52:16.747Z,23.40
2019-06-15T19:54:45.110Z,23.30
2019-06-15T19:57:14.092Z,23.30
2019-06-15T19:59:42.986Z,23.20
2019-06-15T20:02:12.074Z,23.20
2019-06-15T20:04:53.918Z,23.10
2019-06-15T20:07:11.588Z,23.10
2019-06-15T20:09:40.476Z,23.00
2019-06-15T20:12:18.173Z,22.90
2019-06-15T20:14:40.026Z,22.90
2019-06-15T20:17:08.892Z,22.80
2019-06-15T20:19:37.796Z,22.80
2019-06-15T20:22:06.824Z,22.70
2019-06-15T20:24:36.486Z,22.60
2019-06-15T20:27:10.077Z,22.50
2019-06-15T20:29:36.476Z,22.50
2019-06-15T20:32:06.831Z,22.40
2019-06-15T20:34:37.078Z,22.30
2019-06-15T20:37:06.203Z,22.20
2019-06-15T20:39:36.305Z,22.20
2019-06-15T20:42:07.906Z,22.10
2019-06-15T20:44:36.727Z,22.00
2019-06-15T20:47:06.595Z,21.80
2019-06-15T20:49:36.926Z,21.70
2019-06-15T20:52:07.050Z,21.70
2019-06-15T20:54:36.198Z,21.70
2019-06-15T20:57:06.401Z,21.70
2019-06-15T20:59:37.013Z,21.70
2019-06-15T21:02:06.694Z,21.60
2019-06-15T21:04:36.468Z,21.60
2019-06-15T21:07:06.601Z,21.50
2019-06-15T21:09:36.411Z,21.50
2019-06-15T21:12:06.596Z,21.40
2019-06-15T21:14:36.623Z,21.40
2019-06-15T21:17:06.702Z,21.30
2019-06-15T21:19:36.205Z,21.30
2019-06-15T21:22:06.309Z,21.20
2019-06-15T21:24:37.281Z,21.20
2019-06-15T21:27:06.345Z,21.10
2019-06-15T21:29:37.034Z,21.10
2019-06-15T21:32:06.316Z,21.00
2019-06-15T21:34:36.173Z,20.90
2019-06-15T21:37:06.586Z,20.80
2019-06-15T21:39:36.458Z,20.80
2019-06-15T21:42:05.826Z,20.60
2019-06-15T21:44:36.105Z,20.50
2019-06-15T21:47:06.948Z,20.50
2019-06-15T21:49:35.960Z,20.50
2019-06-15T21:52:07.107Z,20.50
2019-06-15T21:54:36.044Z,20.50
2019-06-15T21:57:07.015Z,20.40
2019-06-15T21:59:36.914Z,20.40
2019-06-15T22:02:06.973Z,20.40
2019-06-15T22:04:36.962Z,20.30
2019-06-15T22:07:06.594Z,20.30
2019-06-15T22:09:36.416Z,20.20
2019-06-15T22:12:06.847Z,20.20
2019-06-15T22:14:35.976Z,20.10
2019-06-15T22:17:06.728Z,20.10
2019-06-15T22:19:36.902Z,20.10
2019-06-15T22:22:07.474Z,20.00
2019-06-15T22:24:36.647Z,19.90
2019-06-15T22:27:06.631Z,19.90
2019-06-15T22:29:36.502Z,19.80
2019-06-15T22:32:06.809Z,19.80
2019-06-15T22:34:36.423Z,19.70
2019-06-15T22:37:06.848Z,19.70
2019-06-15T22:39:37.042Z,19.60
2019-06-15T22:42:06.823Z,19.60
2019-06-15T22:44:37.263Z,19.60
2019-06-15T22:47:06.994Z,19.50
2019-06-15T22:49:36.166Z,19.60
2019-06-15T22:52:06.580Z,19.50
2019-06-15T22:54:37.678Z,19.50
2019-06-15T22:57:06.364Z,19.50
2019-06-15T22:59:35.281Z,19.40
2019-06-15T23:02:06.952Z,19.40
2019-06-15T23:04:37.195Z,19.40
2019-06-15T23:07:06.902Z,19.40
2019-06-15T23:09:36.177Z,19.30
2019-06-15T23:12:07.128Z,19.30
2019-06-15T23:14:40.969Z,19.30
2019-06-15T23:17:09.768Z,19.30
2019-06-15T23:19:38.643Z,19.30
2019-06-15T23:22:07.841Z,19.30
2019-06-15T23:24:36.886Z,19.30
2019-06-15T23:27:06.779Z,19.30
2019-06-15T23:29:36.826Z,19.30
2019-06-15T23:32:06.376Z,19.30
2019-06-15T23:34:37.312Z,19.10
2019-06-15T23:37:07.987Z,19.20
2019-06-15T23:39:36.904Z,19.20
2019-06-15T23:42:06.218Z,19.20
2019-06-15T23:44:36.085Z,19.20
2019-06-15T23:47:05.138Z,19.20
2019-06-15T23:49:36.521Z,19.20
2019-06-15T23:52:06.849Z,19.20
2019-06-15T23:54:36.995Z,19.20
2019-06-15T23:57:06.393Z,19.20
2019-06-15T23:59:37.263Z,19.20
